Time;durP1;ratioP1;P1;durP2;ratioP2;P2;SDS_P1;SDS_P2;PMS_P1;PMS_P2;Temp;Humidity;BMP_temperature;BMP_pressure;BME280_temperature;BME280_humidity;BME280_pressure;Samples;Min_cycle;Max_cycle;Signal;HPM_P1;HPM_P2
2022/11/18 00:01:08;;;;;;;19.87;14.00;;;8.20;99.90;;;;;;6223993;28;20468;-59
2022/11/18 00:04:11;;;;;;;51.77;32.60;;;8.20;99.90;;;;;;6225552;28;20828;-59
2022/11/18 00:07:14;;;;;;;82.03;44.47;;;8.10;99.90;;;;;;6225550;28;20779;-58
2022/11/18 00:10:17;;;;;;;40.57;27.77;;;8.00;99.90;;;;;;6225481;28;20469;-58
2022/11/18 00:16:43;;;;;;;29.57;23.13;;;7.80;99.90;;;;;;6226071;28;20480;-57
2022/11/18 00:19:46;;;;;;;26.60;21.77;;;7.60;99.90;;;;;;6225769;28;20487;-58
2022/11/18 00:22:49;;;;;;;28.00;20.87;;;7.70;99.90;;;;;;6225983;28;20703;-58
2022/11/18 00:25:52;;;;;;;25.60;20.43;;;7.60;99.90;;;;;;6225589;28;20476;-58
2022/11/18 00:28:56;;;;;;;24.50;20.03;;;7.60;99.90;;;;;;6225435;28;20543;-57
2022/11/18 00:31:59;;;;;;;23.93;20.50;;;7.60;99.90;;;;;;6225615;28;20538;-57
2022/11/18 00:35:02;;;;;;;27.43;20.90;;;7.60;99.90;;;;;;6224643;28;20476;-59
2022/11/18 00:38:06;;;;;;;27.40;19.53;;;7.70;99.90;;;;;;6223068;28;20957;-58
2022/11/18 00:41:10;;;;;;;29.90;22.07;;;7.80;99.90;;;;;;6223266;28;20933;-59
2022/11/18 00:44:14;;;;;;;25.60;20.27;;;8.00;99.90;;;;;;6220571;28;20928;-59
2022/11/18 00:47:17;;;;;;;22.67;19.10;;;8.10;99.90;;;;;;6223396;28;21281;-58
2022/11/18 00:50:20;;;;;;;21.37;18.40;;;8.10;99.90;;;;;;6223692;28;20487;-58
2022/11/18 00:53:25;;;;;;;25.27;19.87;;;8.10;99.90;;;;;;6224669;28;20490;-58
2022/11/18 00:56:28;;;;;;;28.70;20.37;;;8.10;99.90;;;;;;6224516;28;20473;-58
2022/11/18 00:59:32;;;;;;;28.13;21.30;;;8.10;99.90;;;;;;6224695;28;20460;-58
2022/11/18 01:02:36;;;;;;;28.73;21.20;;;8.10;99.90;;;;;;6224673;28;20468;-58
2022/11/18 01:05:40;;;;;;;26.13;20.43;;;8.10;99.90;;;;;;6223834;28;20482;-58
2022/11/18 01:08:43;;;;;;;28.37;22.80;;;8.20;99.90;;;;;;6222813;28;20476;-58
2022/11/18 01:15:05;;;;;;;29.27;20.63;;;8.30;99.90;;;;;;6208087;28;20949;-58
2022/11/18 01:18:08;;;;;;;32.13;21.43;;;8.40;99.90;;;;;;6223411;28;20522;-58
2022/11/18 01:21:12;;;;;;;36.50;22.73;;;8.40;99.90;;;;;;6223033;28;20480;-58
2022/11/18 01:24:15;;;;;;;34.60;22.50;;;8.30;99.90;;;;;;6222602;28;20476;-58
2022/11/18 01:27:19;;;;;;;27.43;20.30;;;8.00;99.90;;;;;;6221723;28;20526;-58
2022/11/18 01:30:24;;;;;;;33.33;21.53;;;7.90;99.90;;;;;;6224365;28;20468;-58
2022/11/18 01:33:27;;;;;;;28.60;19.97;;;7.90;99.90;;;;;;6225029;28;20476;-58
2022/11/18 01:36:30;;;;;;;35.90;19.27;;;8.10;99.90;;;;;;6224430;28;20542;-58
2022/11/18 01:39:34;;;;;;;30.37;18.40;;;8.10;99.90;;;;;;6224870;28;20468;-58
2022/11/18 01:42:37;;;;;;;27.03;20.70;;;8.20;99.90;;;;;;6224726;28;20480;-58
2022/11/18 01:45:42;;;;;;;26.30;19.70;;;8.10;99.90;;;;;;6224735;28;20503;-58
2022/11/18 01:48:48;;;;;;;23.77;18.60;;;8.20;99.90;;;;;;6224349;28;20484;-58
2022/11/18 01:51:55;;;;;;;27.47;17.80;;;8.20;99.90;;;;;;6224484;28;20857;-58
2022/11/18 01:55:05;;;;;;;26.83;19.03;;;8.30;99.90;;;;;;6224123;28;20592;-58
2022/11/18 01:58:12;;;;;;;25.40;18.70;;;8.40;99.90;;;;;;6224629;28;20460;-58
2022/11/18 02:01:17;;;;;;;26.00;17.37;;;8.40;99.90;;;;;;6224424;28;20815;-58
2022/11/18 02:04:21;;;;;;;27.93;18.33;;;8.40;99.90;;;;;;6224261;28;20836;-58
2022/11/18 02:07:25;;;;;;;23.20;17.70;;;8.40;99.90;;;;;;6224242;28;20476;-58
2022/11/18 02:10:28;;;;;;;28.13;18.33;;;8.40;99.90;;;;;;6224488;28;20499;-58
2022/11/18 02:13:32;;;;;;;24.40;17.83;;;8.50;99.90;;;;;;6223362;28;20464;-59
2022/11/18 02:16:52;;;;;;;33.13;19.37;;;8.40;99.90;;;;;;6220382;28;20971;-58
2022/11/18 02:20:27;;;;;;;23.57;18.30;;;8.50;99.90;;;;;;6224203;28;20948;-58
2022/11/18 02:24:13;;;;;;;32.40;19.67;;;8.40;99.90;;;;;;6225026;28;20500;-58
2022/11/18 02:27:51;;;;;;;26.53;16.97;;;8.10;99.90;;;;;;6227216;28;20842;-58
2022/11/18 02:31:02;;;;;;;29.87;20.17;;;8.20;99.90;;;;;;6200385;28;20472;-58
2022/11/18 02:34:14;;;;;;;27.73;18.83;;;8.30;99.90;;;;;;6227767;28;20480;-58
2022/11/18 02:37:22;;;;;;;33.93;18.50;;;8.40;99.90;;;;;;6228196;28;20472;-58
2022/11/18 02:40:29;;;;;;;28.90;17.77;;;8.40;99.90;;;;;;6228768;28;20948;-58
2022/11/18 02:43:38;;;;;;;27.33;19.47;;;8.50;99.90;;;;;;6228415;28;20522;-58
2022/11/18 02:46:47;;;;;;;25.77;18.77;;;8.40;99.90;;;;;;6228452;28;20471;-58
2022/11/18 02:49:54;;;;;;;26.37;19.53;;;8.50;99.90;;;;;;6228064;28;20539;-57
2022/11/18 02:53:00;;;;;;;24.93;17.77;;;8.50;99.90;;;;;;6228082;28;20483;-57
2022/11/18 02:56:04;;;;;;;30.57;19.10;;;8.50;99.90;;;;;;6227886;28;20549;-57
2022/11/18 02:59:08;;;;;;;30.37;21.30;;;8.60;99.90;;;;;;6227751;28;20483;-58
2022/11/18 03:02:16;;;;;;;30.00;20.80;;;8.60;99.90;;;;;;6227165;28;20991;-57
2022/11/18 03:05:25;;;;;;;28.83;21.00;;;8.70;99.90;;;;;;6228133;28;20533;-57
2022/11/18 03:08:36;;;;;;;25.20;19.30;;;8.70;99.90;;;;;;6228196;28;20551;-57
2022/11/18 03:11:48;;;;;;;30.23;20.50;;;8.70;99.90;;;;;;6227985;28;20464;-57
2022/11/18 03:15:01;;;;;;;29.30;18.90;;;8.60;99.90;;;;;;6227766;28;20472;-58
2022/11/18 03:18:16;;;;;;;29.00;20.17;;;8.60;99.90;;;;;;6228402;28;20469;-57
2022/11/18 03:21:25;;;;;;;25.57;18.23;;;8.50;99.90;;;;;;6227537;28;21051;-57
2022/11/18 03:24:31;;;;;;;27.23;19.23;;;8.60;99.90;;;;;;6218127;28;20850;-57
2022/11/18 03:27:38;;;;;;;33.50;20.30;;;8.50;99.90;;;;;;6226756;28;20476;-57
2022/11/18 03:30:48;;;;;;;31.30;18.33;;;8.40;99.90;;;;;;6224830;28;20538;-57
2022/11/18 03:33:57;;;;;;;28.63;18.90;;;8.40;99.90;;;;;;6226305;28;20488;-58
2022/11/18 03:37:03;;;;;;;28.53;19.53;;;8.40;99.90;;;;;;6225839;28;20871;-57
2022/11/18 03:40:17;;;;;;;27.23;19.20;;;8.40;99.90;;;;;;6224146;28;20839;-58
2022/11/18 03:43:24;;;;;;;28.40;20.10;;;8.40;99.90;;;;;;6203061;28;20520;-58
2022/11/18 03:46:31;;;;;;;29.40;18.20;;;8.40;99.90;;;;;;6213600;28;20476;-58
2022/11/18 03:49:40;;;;;;;27.20;19.80;;;8.50;99.90;;;;;;6225934;28;20472;-58
2022/11/18 03:52:45;;;;;;;29.47;19.47;;;8.60;99.90;;;;;;6223276;28;20480;-58
2022/11/18 03:55:53;;;;;;;27.50;17.37;;;8.60;99.90;;;;;;6222713;28;20480;-58
2022/11/18 03:59:03;;;;;;;29.73;18.37;;;8.70;99.90;;;;;;6224943;28;20491;-58
2022/11/18 04:02:12;;;;;;;26.13;17.77;;;8.60;99.90;;;;;;6223974;28;20503;-58
2022/11/18 04:05:18;;;;;;;24.97;16.37;;;8.50;99.90;;;;;;6225933;28;20456;-58
2022/11/18 04:08:26;;;;;;;21.83;15.27;;;8.50;99.90;;;;;;6225908;28;20421;-58
2022/11/18 04:14:55;;;;;;;18.90;13.73;;;8.50;99.90;;;;;;6225841;28;20472;-58
2022/11/18 04:17:59;;;;;;;19.27;14.60;;;8.50;99.90;;;;;;6225483;28;20970;-59
2022/11/18 04:21:03;;;;;;;18.50;14.07;;;8.50;99.90;;;;;;6226654;28;20499;-58
2022/11/18 04:24:07;;;;;;;19.10;14.70;;;8.50;99.90;;;;;;6226284;28;20794;-58
2022/11/18 04:27:10;;;;;;;18.57;14.10;;;8.40;99.90;;;;;;6217637;28;20476;-58
2022/11/18 04:30:13;;;;;;;16.57;12.97;;;8.40;99.90;;;;;;6226289;28;20476;-58
2022/11/18 04:33:16;;;;;;;19.70;14.40;;;8.40;99.90;;;;;;6226119;28;20818;-58
2022/11/18 04:36:21;;;;;;;15.77;11.60;;;8.50;99.90;;;;;;6226097;28;20476;-58
2022/11/18 04:39:24;;;;;;;13.73;12.10;;;8.50;99.90;;;;;;6225992;28;20468;-58
2022/11/18 04:42:27;;;;;;;15.33;12.23;;;8.50;99.90;;;;;;6226651;28;20480;-58
2022/11/18 04:45:30;;;;;;;18.30;12.80;;;8.50;99.90;;;;;;6225228;28;20479;-57
2022/11/18 04:48:34;;;;;;;14.00;12.53;;;8.50;99.90;;;;;;6225885;28;20564;-57
2022/11/18 04:51:38;;;;;;;13.87;11.77;;;8.50;99.90;;;;;;6225844;28;20479;-58
2022/11/18 04:54:42;;;;;;;14.13;12.27;;;8.50;99.90;;;;;;6225214;28;20519;-57
2022/11/18 04:57:45;;;;;;;13.40;12.10;;;8.40;99.90;;;;;;6225809;28;20475;-57
2022/11/18 05:00:50;;;;;;;12.97;11.77;;;8.30;99.90;;;;;;6225670;28;20846;-58
2022/11/18 05:03:53;;;;;;;14.57;11.10;;;8.20;99.90;;;;;;6225415;28;20468;-59
2022/11/18 05:06:58;;;;;;;13.00;11.63;;;8.30;99.90;;;;;;6225211;28;20471;-58
2022/11/18 05:10:02;;;;;;;13.80;11.33;;;8.20;99.90;;;;;;6225159;28;20487;-58
2022/11/18 05:13:04;;;;;;;13.70;12.10;;;8.20;99.90;;;;;;6225384;28;20503;-58
2022/11/18 05:16:07;;;;;;;15.40;10.23;;;8.10;99.90;;;;;;6225134;28;20472;-58
2022/11/18 05:19:11;;;;;;;14.30;11.53;;;8.10;99.90;;;;;;6225211;28;20476;-58
2022/11/18 05:22:16;;;;;;;15.40;12.40;;;8.00;99.90;;;;;;6224987;28;20494;-58
2022/11/18 05:25:19;;;;;;;13.60;12.20;;;8.00;99.90;;;;;;6225075;28;20499;-58
2022/11/18 05:28:22;;;;;;;14.97;12.10;;;8.00;99.90;;;;;;6225243;28;20886;-58
2022/11/18 05:31:25;;;;;;;13.97;12.47;;;7.90;99.90;;;;;;6220839;28;20491;-58
2022/11/18 05:34:29;;;;;;;15.93;12.13;;;7.90;99.90;;;;;;6224828;28;20495;-58
2022/11/18 05:37:33;;;;;;;15.53;13.07;;;7.90;99.90;;;;;;6225316;28;20483;-58
2022/11/18 05:40:36;;;;;;;20.83;14.93;;;7.80;99.90;;;;;;6224778;28;20479;-58
2022/11/18 05:43:38;;;;;;;17.53;12.43;;;7.80;99.90;;;;;;6224832;28;20472;-59
2022/11/18 05:46:42;;;;;;;16.47;14.37;;;7.80;99.90;;;;;;6225209;28;20483;-58
2022/11/18 05:49:45;;;;;;;17.67;13.40;;;7.80;99.90;;;;;;6224882;28;20538;-58
2022/11/18 05:52:49;;;;;;;16.10;14.40;;;7.80;99.90;;;;;;6224910;28;20971;-58
2022/11/18 05:55:58;;;;;;;18.77;13.70;;;7.80;99.90;;;;;;6224930;28;20488;-58
2022/11/18 05:59:01;;;;;;;19.50;13.83;;;8.00;99.90;;;;;;6229684;28;20482;-58
2022/11/18 06:02:07;;;;;;;16.27;13.73;;;8.00;99.90;;;;;;6229514;28;20472;-58
2022/11/18 06:05:12;;;;;;;16.87;14.27;;;7.90;99.90;;;;;;6229508;28;20480;-58
2022/11/18 06:08:19;;;;;;;17.73;14.00;;;7.90;99.90;;;;;;6229232;28;20460;-58
2022/11/18 06:11:22;;;;;;;17.40;14.00;;;7.90;99.90;;;;;;6229323;28;20479;-58
2022/11/18 06:14:31;;;;;;;14.10;12.20;;;8.00;99.90;;;;;;6229254;28;20475;-58
2022/11/18 06:17:39;;;;;;;15.20;11.90;;;8.10;99.90;;;;;;6229240;28;20946;-58
2022/11/18 06:20:43;;;;;;;14.83;12.20;;;8.20;99.90;;;;;;6228973;28;20756;-58
2022/11/18 06:23:47;;;;;;;15.57;12.23;;;8.20;99.90;;;;;;6228914;28;20561;-58
2022/11/18 06:26:51;;;;;;;14.37;12.83;;;8.30;99.90;;;;;;6229206;28;20533;-58
2022/11/18 06:29:54;;;;;;;17.97;13.70;;;8.40;99.90;;;;;;6229055;28;20478;-59
2022/11/18 06:32:57;;;;;;;15.50;12.70;;;8.40;99.90;;;;;;6228900;28;20472;-58
2022/11/18 06:36:00;;;;;;;17.93;14.57;;;8.40;99.90;;;;;;6228711;28;20472;-58
2022/11/18 06:39:06;;;;;;;16.53;14.23;;;8.50;99.90;;;;;;6228690;28;20472;-58
2022/11/18 06:42:09;;;;;;;18.03;13.67;;;8.50;99.90;;;;;;6228663;28;20467;-58
2022/11/18 06:45:12;;;;;;;16.53;13.30;;;8.50;99.90;;;;;;6228788;28;20484;-58
2022/11/18 06:48:15;;;;;;;18.23;13.77;;;8.50;99.90;;;;;;6228338;28;20463;-58
2022/11/18 06:51:19;;;;;;;15.20;12.50;;;8.40;99.90;;;;;;6228718;28;20493;-58
2022/11/18 06:54:23;;;;;;;14.83;12.07;;;8.30;99.90;;;;;;6227789;28;20556;-58
2022/11/18 06:57:26;;;;;;;17.30;13.63;;;8.30;99.90;;;;;;6228194;28;20475;-58
2022/11/18 07:00:29;;;;;;;16.33;13.53;;;8.40;99.90;;;;;;6227966;28;20960;-58
2022/11/18 07:03:33;;;;;;;16.40;13.40;;;8.40;99.90;;;;;;6228049;28;20487;-58
2022/11/18 07:06:36;;;;;;;18.30;14.00;;;8.40;99.90;;;;;;6227506;28;21173;-58
2022/11/18 07:09:41;;;;;;;15.23;12.60;;;8.50;99.90;;;;;;6227094;28;20795;-58
2022/11/18 07:12:44;;;;;;;15.90;14.20;;;8.40;99.90;;;;;;6227592;28;20480;-58
2022/11/18 07:15:47;;;;;;;15.67;13.73;;;8.50;99.90;;;;;;6227898;28;20495;-58
2022/11/18 07:18:52;;;;;;;15.70;12.67;;;8.50;99.90;;;;;;6228021;28;20482;-58
2022/11/18 07:21:55;;;;;;;17.50;12.60;;;8.70;99.90;;;;;;6227785;28;20495;-58
2022/11/18 07:25:00;;;;;;;13.43;11.73;;;8.70;99.90;;;;;;6227654;28;20522;-58
2022/11/18 07:28:03;;;;;;;13.73;11.37;;;8.70;99.90;;;;;;6227058;28;20480;-58
2022/11/18 07:31:08;;;;;;;13.37;11.73;;;8.70;99.90;;;;;;6227177;28;20488;-58
2022/11/18 07:34:13;;;;;;;13.93;11.83;;;8.70;99.90;;;;;;6227306;28;20476;-57
2022/11/18 07:37:16;;;;;;;13.03;11.33;;;8.70;99.90;;;;;;6227507;28;20487;-57
2022/11/18 07:40:21;;;;;;;16.10;11.87;;;8.70;99.90;;;;;;6222896;28;20476;-57
2022/11/18 07:43:24;;;;;;;13.70;12.27;;;8.80;99.90;;;;;;6227246;28;20472;-58
2022/11/18 07:46:30;;;;;;;18.97;14.37;;;8.90;99.90;;;;;;6229361;28;20487;-58
2022/11/18 07:49:33;;;;;;;13.50;10.97;;;8.90;99.90;;;;;;6227735;28;20476;-58
2022/11/18 07:52:36;;;;;;;12.17;10.67;;;9.00;99.90;;;;;;6226410;28;20476;-58
2022/11/18 07:55:40;;;;;;;12.00;10.53;;;9.10;99.90;;;;;;6226358;28;20480;-58
2022/11/18 07:58:44;;;;;;;13.33;11.93;;;9.10;99.90;;;;;;6226521;28;20486;-58
2022/11/18 08:01:47;;;;;;;11.93;10.73;;;9.10;99.90;;;;;;6226848;28;20468;-58
2022/11/18 08:04:51;;;;;;;11.63;10.40;;;9.10;99.90;;;;;;6226751;28;20476;-58
2022/11/18 08:07:54;;;;;;;12.13;10.63;;;9.20;99.90;;;;;;6225724;28;20825;-57
2022/11/18 08:11:00;;;;;;;11.73;10.60;;;9.20;99.90;;;;;;6226332;28;20468;-57
2022/11/18 08:14:03;;;;;;;10.47;9.40;;;9.20;99.90;;;;;;6226509;28;20488;-58
2022/11/18 08:17:06;;;;;;;11.10;10.07;;;9.10;99.90;;;;;;6226370;28;20483;-59
2022/11/18 08:20:11;;;;;;;10.20;9.20;;;9.10;99.90;;;;;;6226238;28;20503;-59
2022/11/18 08:23:15;;;;;;;10.80;9.80;;;9.20;99.90;;;;;;6223183;28;20463;-59
2022/11/18 08:26:19;;;;;;;12.53;11.33;;;9.20;99.90;;;;;;6225449;28;20939;-58
2022/11/18 08:29:22;;;;;;;11.53;10.33;;;9.20;99.90;;;;;;6226125;28;20450;-58
2022/11/18 08:32:28;;;;;;;9.90;9.00;;;9.30;99.90;;;;;;6225811;28;20799;-58
2022/11/18 08:35:32;;;;;;;12.00;10.70;;;9.40;99.90;;;;;;6226374;28;20467;-59
2022/11/18 08:38:36;;;;;;;9.90;9.00;;;9.40;99.90;;;;;;6226066;28;20472;-58
2022/11/18 08:41:42;;;;;;;10.27;9.27;;;9.40;99.90;;;;;;6217026;28;20488;-58
2022/11/18 08:44:45;;;;;;;8.67;7.60;;;9.40;99.90;;;;;;6225399;28;20487;-58
2022/11/18 08:47:48;;;;;;;9.43;8.43;;;9.50;99.90;;;;;;6225191;28;20475;-58
2022/11/18 08:50:52;;;;;;;11.40;10.07;;;9.50;99.90;;;;;;6224890;28;20468;-57
2022/11/18 08:53:55;;;;;;;9.83;8.83;;;9.40;99.90;;;;;;6223678;28;20487;-58
2022/11/18 08:57:00;;;;;;;10.20;9.20;;;9.40;99.90;;;;;;6226011;28;20472;-57
2022/11/18 09:00:04;;;;;;;13.70;10.30;;;9.40;99.90;;;;;;6225555;28;20533;-58
2022/11/18 09:03:07;;;;;;;10.73;9.37;;;9.40;99.90;;;;;;6225774;28;20468;-57
2022/11/18 09:06:12;;;;;;;11.67;10.57;;;9.30;99.90;;;;;;6225258;28;20476;-57
2022/11/18 09:09:15;;;;;;;10.83;9.73;;;9.40;99.90;;;;;;6225146;28;20476;-60
2022/11/18 09:12:20;;;;;;;10.47;8.60;;;9.40;99.90;;;;;;6224962;28;20848;-57
2022/11/18 09:15:25;;;;;;;9.23;8.23;;;9.40;99.90;;;;;;6224954;28;20800;-56
2022/11/18 09:18:28;;;;;;;11.30;8.97;;;9.40;99.90;;;;;;6225302;28;20472;-56
2022/11/18 09:21:32;;;;;;;9.17;8.27;;;9.40;99.90;;;;;;6224664;28;20982;-56
2022/11/18 09:24:42;;;;;;;10.03;9.10;;;9.40;99.90;;;;;;6224370;28;20971;-55
2022/11/18 09:27:47;;;;;;;11.23;10.07;;;9.40;99.90;;;;;;6224699;28;20892;-55
2022/11/18 09:30:50;;;;;;;9.67;8.77;;;9.50;99.90;;;;;;6224187;28;20804;-56
2022/11/18 09:33:53;;;;;;;8.83;8.03;;;9.50;99.90;;;;;;6224656;28;20490;-56
2022/11/18 09:36:57;;;;;;;9.60;8.70;;;9.50;99.90;;;;;;6224613;28;20932;-56
2022/11/18 09:40:00;;;;;;;10.40;9.50;;;9.50;99.90;;;;;;6224594;28;20476;-56
2022/11/18 09:43:14;;;;;;;10.13;9.23;;;9.60;99.90;;;;;;6224581;28;20472;-56
2022/11/18 09:46:24;;;;;;;9.43;8.50;;;9.60;99.90;;;;;;6220107;28;20956;-56
2022/11/18 09:49:31;;;;;;;10.30;9.00;;;9.70;99.90;;;;;;6224665;28;20468;-55
2022/11/18 09:52:40;;;;;;;12.00;10.53;;;9.70;99.90;;;;;;6224315;28;20496;-56
2022/11/18 09:55:44;;;;;;;9.97;8.97;;;9.80;99.90;;;;;;6223942;28;20492;-56
2022/11/18 09:58:49;;;;;;;11.00;9.83;;;9.80;99.90;;;;;;6224040;28;20480;-56
2022/11/18 10:01:55;;;;;;;13.73;10.13;;;9.50;99.90;;;;;;6224162;28;20483;-56
2022/11/18 10:05:08;;;;;;;12.70;11.33;;;9.30;99.90;;;;;;6224336;28;20484;-56
2022/11/18 10:08:21;;;;;;;11.60;10.40;;;9.30;99.90;;;;;;6224108;28;20479;-56
2022/11/18 10:11:26;;;;;;;11.77;10.50;;;9.30;99.90;;;;;;6224669;28;20455;-56
2022/11/18 10:14:46;;;;;;;10.43;9.40;;;9.40;99.90;;;;;;6224338;28;20484;-56
2022/11/18 10:17:56;;;;;;;12.20;9.37;;;9.40;99.90;;;;;;6224248;28;20464;-56
2022/11/18 10:21:05;;;;;;;13.07;10.93;;;9.40;99.90;;;;;;6224565;28;20472;-56
2022/11/18 10:24:13;;;;;;;11.50;10.30;;;9.50;99.90;;;;;;6223249;28;20480;-56
2022/11/18 10:27:17;;;;;;;11.00;10.00;;;9.50;99.90;;;;;;6224113;28;20475;-57
2022/11/18 10:30:24;;;;;;;13.00;11.20;;;9.50;99.90;;;;;;6224014;28;20472;-56
2022/11/18 10:33:29;;;;;;;11.40;9.57;;;9.60;99.90;;;;;;6223939;28;20472;-56
2022/11/18 10:36:34;;;;;;;11.30;10.27;;;9.60;99.90;;;;;;6224003;28;20984;-56
2022/11/18 10:39:50;;;;;;;11.83;10.63;;;9.50;99.90;;;;;;6223938;28;20496;-56
2022/11/18 10:42:53;;;;;;;11.70;10.23;;;9.50;99.90;;;;;;6224474;28;20464;-56
2022/11/18 10:46:15;;;;;;;13.70;12.30;;;9.50;99.90;;;;;;6228778;28;20480;-56
2022/11/18 10:49:18;;;;;;;13.10;11.80;;;9.40;99.90;;;;;;6228430;28;20491;-57
2022/11/18 10:52:21;;;;;;;13.27;11.90;;;9.40;99.90;;;;;;6227809;28;20475;-56
2022/11/18 10:55:25;;;;;;;15.87;12.90;;;9.40;99.90;;;;;;6227430;28;20549;-55
2022/11/18 10:58:31;;;;;;;14.97;13.40;;;9.40;99.90;;;;;;6227674;28;20575;-55
2022/11/18 11:01:35;;;;;;;15.10;13.63;;;9.40;99.90;;;;;;6227898;28;20522;-56
2022/11/18 11:04:40;;;;;;;15.83;14.20;;;9.50;99.90;;;;;;6227706;28;20475;-56
2022/11/18 11:07:44;;;;;;;16.50;14.77;;;9.50;99.90;;;;;;6228051;28;20507;-56
2022/11/18 11:10:55;;;;;;;15.37;13.77;;;9.50;99.90;;;;;;6227646;28;20960;-56
2022/11/18 11:14:06;;;;;;;13.43;12.00;;;9.50;99.90;;;;;;6227162;28;20495;-57
2022/11/18 11:17:14;;;;;;;14.47;12.97;;;9.50;99.90;;;;;;6227593;28;20591;-56
2022/11/18 11:20:21;;;;;;;14.93;13.40;;;9.50;99.90;;;;;;6227341;28;20550;-55
2022/11/18 11:23:25;;;;;;;15.47;12.50;;;9.60;99.90;;;;;;6226667;28;20769;-55
2022/11/18 11:26:37;;;;;;;15.77;12.97;;;9.60;99.90;;;;;;6202835;28;20535;-55
2022/11/18 11:30:12;;;;;;;14.80;12.43;;;9.70;99.90;;;;;;6202421;28;20561;-56
2022/11/18 11:33:29;;;;;;;17.10;13.67;;;9.70;99.90;;;;;;6202785;28;20492;-56
2022/11/18 11:36:41;;;;;;;16.23;14.27;;;9.70;99.90;;;;;;6202426;28;20479;-56
2022/11/18 11:40:07;;;;;;;18.10;15.73;;;9.90;99.90;;;;;;6202156;28;20786;-56
2022/11/18 11:43:26;;;;;;;17.30;15.40;;;9.80;99.90;;;;;;6202857;28;20473;-56
2022/11/18 11:46:40;;;;;;;17.90;16.00;;;9.90;99.90;;;;;;6201155;28;20473;-56
2022/11/18 11:49:53;;;;;;;19.67;16.40;;;10.10;99.90;;;;;;6201732;28;20481;-56
2022/11/18 11:53:14;;;;;;;18.80;16.20;;;10.10;99.90;;;;;;6201792;28;20831;-55
2022/11/18 11:56:23;;;;;;;17.33;15.53;;;10.20;99.90;;;;;;6201234;28;20503;-56
2022/11/18 11:59:32;;;;;;;17.93;14.53;;;10.30;99.90;;;;;;6202024;28;20739;-56
2022/11/18 12:03:00;;;;;;;17.87;15.60;;;10.40;99.90;;;;;;6222334;28;20924;-56
2022/11/18 12:06:07;;;;;;;17.60;14.67;;;10.50;99.90;;;;;;6225444;28;20472;-56
2022/11/18 12:09:18;;;;;;;16.90;15.07;;;10.70;99.90;;;;;;6226108;28;20483;-56
2022/11/18 12:12:34;;;;;;;18.27;16.37;;;10.70;99.90;;;;;;6226224;28;20483;-56
2022/11/18 12:15:53;;;;;;;20.17;17.37;;;10.80;99.90;;;;;;6226155;28;21042;-56
2022/11/18 12:18:59;;;;;;;20.50;15.00;;;10.80;99.90;;;;;;6225967;28;20881;-56
2022/11/18 12:22:05;;;;;;;18.43;15.97;;;10.80;99.90;;;;;;6225884;28;20460;-56
2022/11/18 12:25:59;;;;;;;18.70;15.93;;;10.70;99.90;;;;;;6226258;28;20491;-56
2022/11/18 12:29:22;;;;;;;17.63;15.77;;;10.30;99.90;;;;;;6201799;28;20477;-56
2022/11/18 12:32:29;;;;;;;18.00;16.20;;;10.50;99.90;;;;;;6201920;28;20426;-56
2022/11/18 12:35:32;;;;;;;21.70;15.77;;;10.50;99.90;;;;;;6201899;28;20495;-57
2022/11/18 12:38:37;;;;;;;22.07;16.80;;;10.50;99.90;;;;;;6201472;28;20469;-56
2022/11/18 12:45:57;;;;;;;18.57;16.10;;;10.80;99.90;;;;;;6200945;28;20552;-60
2022/11/18 12:49:41;;;;;;;17.50;15.37;;;10.90;99.90;;;;;;6200548;28;20988;-57
2022/11/18 12:52:52;;;;;;;18.00;15.83;;;11.00;99.90;;;;;;6200985;28;20492;-57
2022/11/18 12:55:58;;;;;;;17.67;15.80;;;11.10;99.90;;;;;;6222493;28;20490;-59
2022/11/18 12:59:02;;;;;;;20.97;17.43;;;11.20;99.90;;;;;;6216704;28;20480;-60
2022/11/18 13:02:15;;;;;;;20.73;17.10;;;11.60;99.90;;;;;;6224494;28;20475;-57
2022/11/18 13:05:21;;;;;;;18.23;16.27;;;12.20;99.90;;;;;;6223065;28;20457;-58
2022/11/18 13:08:24;;;;;;;22.80;15.40;;;12.80;99.90;;;;;;6223217;28;20900;-58
2022/11/18 13:11:45;;;;;;;19.40;16.93;;;12.90;99.90;;;;;;6223184;28;20451;-57
2022/11/18 13:18:15;;;;;;;23.20;17.40;;;12.40;99.90;;;;;;6223609;28;20491;-56
2022/11/18 13:24:49;;;;;;;18.50;16.60;;;12.00;99.90;;;;;;6224918;28;20517;-57
2022/11/18 13:28:03;;;;;;;18.23;16.33;;;11.60;99.90;;;;;;6225387;28;20484;-57
2022/11/18 13:31:15;;;;;;;19.77;16.50;;;11.40;99.90;;;;;;6225098;28;20495;-57
2022/11/18 13:34:21;;;;;;;19.47;17.47;;;11.30;99.90;;;;;;6224895;28;20481;-57
2022/11/18 13:37:26;;;;;;;17.43;15.40;;;11.00;99.90;;;;;;6225126;28;20472;-56
2022/11/18 13:40:32;;;;;;;20.57;16.60;;;10.60;99.90;;;;;;6225163;28;20506;-57
2022/11/18 13:43:37;;;;;;;18.53;16.53;;;10.40;99.90;;;;;;6224834;28;20809;-58
2022/11/18 13:46:41;;;;;;;21.03;17.17;;;10.20;99.90;;;;;;6225089;28;20480;-58
2022/11/18 13:49:51;;;;;;;18.70;16.70;;;10.10;99.90;;;;;;6225018;28;20798;-57
2022/11/18 13:53:07;;;;;;;18.50;15.90;;;10.00;99.90;;;;;;6225140;28;20968;-57
2022/11/18 13:56:19;;;;;;;18.57;16.33;;;9.80;99.90;;;;;;6223895;28;20464;-57
2022/11/18 13:59:24;;;;;;;19.43;14.90;;;9.70;99.90;;;;;;6220580;28;20872;-58
2022/11/18 14:02:28;;;;;;;17.60;15.03;;;9.80;99.90;;;;;;6224770;28;20436;-57
2022/11/18 14:05:31;;;;;;;17.43;15.63;;;9.80;99.90;;;;;;6224823;28;20463;-58
2022/11/18 14:08:35;;;;;;;15.63;14.00;;;9.90;99.90;;;;;;6224427;28;20893;-58
2022/11/18 14:11:41;;;;;;;16.93;15.30;;;10.00;99.90;;;;;;6225043;28;20467;-58
2022/11/18 14:14:46;;;;;;;14.30;12.80;;;10.10;99.90;;;;;;6227568;28;20471;-58
2022/11/18 14:17:52;;;;;;;19.37;17.27;;;10.10;99.90;;;;;;6227196;28;20968;-58
2022/11/18 14:20:56;;;;;;;28.00;25.17;;;10.20;99.90;;;;;;6229944;28;20480;-57
2022/11/18 14:23:59;;;;;;;19.07;16.40;;;10.10;99.90;;;;;;6229785;28;20940;-58
2022/11/18 14:27:36;;;;;;;16.63;14.83;;;10.10;99.90;;;;;;6229331;28;20476;-57
2022/11/18 14:30:41;;;;;;;15.73;14.10;;;10.10;99.90;;;;;;6229034;28;20467;-57
2022/11/18 14:34:05;;;;;;;12.73;11.53;;;10.10;99.90;;;;;;6228912;28;20470;-57
2022/11/18 14:37:12;;;;;;;14.80;12.67;;;10.10;99.90;;;;;;6228880;28;20476;-57
2022/11/18 14:40:16;;;;;;;13.07;11.73;;;10.10;99.90;;;;;;6228493;28;20472;-57
2022/11/18 14:43:19;;;;;;;14.80;11.87;;;10.20;99.90;;;;;;6228871;28;20550;-57
2022/11/18 14:46:24;;;;;;;17.50;11.60;;;10.20;99.90;;;;;;6228495;28;20476;-57
2022/11/18 14:49:30;;;;;;;14.07;12.53;;;10.20;99.90;;;;;;6228762;28;20483;-57
2022/11/18 14:52:33;;;;;;;17.47;13.37;;;10.20;99.90;;;;;;6228183;28;20487;-57
2022/11/18 14:55:36;;;;;;;15.43;12.33;;;10.20;99.90;;;;;;6227565;28;20546;-57
2022/11/18 14:58:39;;;;;;;14.70;13.10;;;10.30;99.90;;;;;;6228098;28;20545;-57
2022/11/18 15:01:44;;;;;;;14.33;12.90;;;10.20;99.90;;;;;;6227818;28;20936;-57
2022/11/18 15:04:49;;;;;;;14.30;12.80;;;10.20;99.90;;;;;;6227330;28;20475;-57
2022/11/18 15:07:52;;;;;;;15.73;13.53;;;10.20;99.90;;;;;;6227421;28;20920;-57
2022/11/18 15:10:55;;;;;;;19.30;13.43;;;10.10;99.90;;;;;;6227572;28;20487;-57
2022/11/18 15:13:59;;;;;;;15.73;14.03;;;10.10;99.90;;;;;;6227153;28;20476;-58
2022/11/18 15:17:04;;;;;;;20.83;14.40;;;10.10;99.90;;;;;;6227323;28;20487;-57
2022/11/18 15:20:10;;;;;;;19.63;15.83;;;10.10;99.90;;;;;;6227463;28;20837;-57
2022/11/18 15:23:13;;;;;;;19.23;16.30;;;10.10;99.90;;;;;;6227350;28;20978;-58
2022/11/18 15:26:20;;;;;;;17.47;15.60;;;10.10;99.90;;;;;;6227075;28;20984;-57
2022/11/18 15:29:25;;;;;;;19.90;15.60;;;10.10;99.90;;;;;;6226761;28;20499;-57
2022/11/18 15:32:29;;;;;;;22.57;20.20;;;10.10;99.90;;;;;;6227166;28;20883;-57
2022/11/18 15:35:32;;;;;;;19.97;17.20;;;10.10;99.90;;;;;;6226969;28;20908;-58
2022/11/18 15:38:36;;;;;;;20.70;16.93;;;10.00;99.90;;;;;;6226749;28;20472;-57
2022/11/18 15:41:41;;;;;;;23.70;16.43;;;10.00;99.90;;;;;;6227248;28;20480;-57
2022/11/18 15:44:45;;;;;;;23.00;19.73;;;10.00;99.90;;;;;;6226583;28;20476;-58
2022/11/18 15:47:52;;;;;;;24.17;17.50;;;10.00;99.90;;;;;;6226896;28;20984;-57
2022/11/18 15:50:55;;;;;;;20.83;18.60;;;9.90;99.90;;;;;;6226567;28;20960;-57
2022/11/18 15:53:58;;;;;;;21.53;18.40;;;9.90;99.90;;;;;;6226405;28;20476;-58
2022/11/18 15:57:01;;;;;;;20.27;18.13;;;9.90;99.90;;;;;;6226666;28;20472;-57
2022/11/18 16:00:05;;;;;;;23.17;18.93;;;9.80;99.90;;;;;;6226175;28;20471;-57
2022/11/18 16:03:10;;;;;;;26.80;20.10;;;9.70;99.90;;;;;;6226725;28;20487;-57
2022/11/18 16:06:13;;;;;;;34.70;24.70;;;9.60;99.90;;;;;;6226565;28;20551;-57
2022/11/18 16:09:17;;;;;;;73.37;39.83;;;9.50;99.90;;;;;;6217694;28;20563;-57
2022/11/18 16:15:46;;;;;;;48.03;29.20;;;9.50;99.90;;;;;;6225936;28;20789;-57
2022/11/18 16:18:54;;;;;;;50.43;31.03;;;9.40;99.90;;;;;;6226959;28;20476;-57
2022/11/18 16:21:57;;;;;;;40.60;25.50;;;9.40;99.90;;;;;;6226271;28;20488;-57